Terminal Aerodrome Forecast
Issued by NWS Shreveport, LA

Current Version | Previous Version | Text Only | Print | Product List | Glossary On
Versions: 1 2 3 4 5 6 7 8 9 10 11 12 13 14 15 16 17 18 19 20 21 22 23 24 25 26 27
000
FTUS44 KSHV 251240 AAA
TAFTXK
TAF AMD
KTXK 251240Z 2513/2612 21009KT 1/4SM FG VV002
      TEMPO 2513/2515 4SM BR BKN015
     FM251500 23015G25KT P6SM SCT025
     FM260000 21005KT P6SM SCT250=

USA.gov is the U.S. government's official web portal to all federal, state and local government web resources and services.